sensor_id;sensor_type;location;lat;lon;timestamp;P1;durP1;ratioP1;P2;durP2;ratioP2
2896;SDS011;1458;49.728;9.228;2022-08-01T00:01:13;0.80;;;0.80;;
2896;SDS011;1458;49.728;9.228;2022-08-01T00:03:42;0.57;;;0.57;;
2896;SDS011;1458;49.728;9.228;2022-08-01T00:06:13;0.63;;;0.63;;
2896;SDS011;1458;49.728;9.228;2022-08-01T00:08:40;0.70;;;0.70;;
2896;SDS011;1458;49.728;9.228;2022-08-01T00:11:14;0.50;;;0.50;;
2896;SDS011;1458;49.728;9.228;2022-08-01T00:13:42;0.50;;;0.50;;
2896;SDS011;1458;49.728;9.228;2022-08-01T00:16:12;0.60;;;0.60;;
2896;SDS011;1458;49.728;9.228;2022-08-01T00:18:40;0.60;;;0.60;;
2896;SDS011;1458;49.728;9.228;2022-08-01T00:21:15;0.50;;;0.50;;
2896;SDS011;1458;49.728;9.228;2022-08-01T00:23:46;0.50;;;0.50;;
2896;SDS011;1458;49.728;9.228;2022-08-01T00:26:14;0.57;;;0.57;;
2896;SDS011;1458;49.728;9.228;2022-08-01T00:28:43;0.50;;;0.50;;
2896;SDS011;1458;49.728;9.228;2022-08-01T00:31:14;0.40;;;0.40;;
2896;SDS011;1458;49.728;9.228;2022-08-01T00:33:45;0.50;;;0.50;;
2896;SDS011;1458;49.728;9.228;2022-08-01T00:36:14;0.40;;;0.40;;
2896;SDS011;1458;49.728;9.228;2022-08-01T00:38:44;0.50;;;0.50;;
2896;SDS011;1458;49.728;9.228;2022-08-01T00:41:14;0.40;;;0.40;;
2896;SDS011;1458;49.728;9.228;2022-08-01T00:43:44;0.40;;;0.40;;
2896;SDS011;1458;49.728;9.228;2022-08-01T00:46:17;0.40;;;0.40;;
2896;SDS011;1458;49.728;9.228;2022-08-01T00:48:49;0.50;;;0.50;;
2896;SDS011;1458;49.728;9.228;2022-08-01T00:51:19;0.40;;;0.40;;
2896;SDS011;1458;49.728;9.228;2022-08-01T00:53:47;0.40;;;0.40;;
2896;SDS011;1458;49.728;9.228;2022-08-01T00:56:20;0.40;;;0.40;;
2896;SDS011;1458;49.728;9.228;2022-08-01T00:58:48;0.40;;;0.40;;
2896;SDS011;1458;49.728;9.228;2022-08-01T01:01:19;0.40;;;0.40;;
2896;SDS011;1458;49.728;9.228;2022-08-01T01:03:49;0.40;;;0.40;;
2896;SDS011;1458;49.728;9.228;2022-08-01T01:06:22;0.30;;;0.30;;
2896;SDS011;1458;49.728;9.228;2022-08-01T01:09:03;0.27;;;0.27;;
2896;SDS011;1458;49.728;9.228;2022-08-01T01:12:01;0.30;;;0.30;;
2896;SDS011;1458;49.728;9.228;2022-08-01T01:14:41;0.30;;;0.30;;
2896;SDS011;1458;49.728;9.228;2022-08-01T01:17:21;0.20;;;0.20;;
2896;SDS011;1458;49.728;9.228;2022-08-01T01:19:57;0.20;;;0.20;;
2896;SDS011;1458;49.728;9.228;2022-08-01T01:22:35;0.30;;;0.30;;
2896;SDS011;1458;49.728;9.228;2022-08-01T01:25:19;0.20;;;0.20;;
2896;SDS011;1458;49.728;9.228;2022-08-01T01:28:20;0.23;;;0.23;;
2896;SDS011;1458;49.728;9.228;2022-08-01T01:33:47;0.20;;;0.20;;
2896;SDS011;1458;49.728;9.228;2022-08-01T01:36:16;0.20;;;0.20;;
2896;SDS011;1458;49.728;9.228;2022-08-01T01:38:46;0.30;;;0.30;;
2896;SDS011;1458;49.728;9.228;2022-08-01T01:41:18;0.30;;;0.30;;
2896;SDS011;1458;49.728;9.228;2022-08-01T01:43:47;0.20;;;0.20;;
2896;SDS011;1458;49.728;9.228;2022-08-01T01:46:22;0.20;;;0.20;;
2896;SDS011;1458;49.728;9.228;2022-08-01T01:48:56;0.30;;;0.30;;
2896;SDS011;1458;49.728;9.228;2022-08-01T01:51:27;0.20;;;0.20;;
2896;SDS011;1458;49.728;9.228;2022-08-01T01:53:57;0.20;;;0.20;;
2896;SDS011;1458;49.728;9.228;2022-08-01T01:56:30;0.20;;;0.20;;
2896;SDS011;1458;49.728;9.228;2022-08-01T01:59:00;0.30;;;0.30;;
2896;SDS011;1458;49.728;9.228;2022-08-01T02:01:31;0.20;;;0.20;;
2896;SDS011;1458;49.728;9.228;2022-08-01T02:04:01;0.20;;;0.20;;
2896;SDS011;1458;49.728;9.228;2022-08-01T02:06:30;0.20;;;0.20;;
2896;SDS011;1458;49.728;9.228;2022-08-01T02:09:01;0.20;;;0.20;;
2896;SDS011;1458;49.728;9.228;2022-08-01T02:11:31;0.20;;;0.20;;
2896;SDS011;1458;49.728;9.228;2022-08-01T02:14:03;0.20;;;0.20;;
2896;SDS011;1458;49.728;9.228;2022-08-01T02:16:36;0.20;;;0.20;;
2896;SDS011;1458;49.728;9.228;2022-08-01T02:19:09;0.20;;;0.20;;
2896;SDS011;1458;49.728;9.228;2022-08-01T02:21:44;0.30;;;0.30;;
2896;SDS011;1458;49.728;9.228;2022-08-01T02:24:23;0.23;;;0.23;;
2896;SDS011;1458;49.728;9.228;2022-08-01T02:26:59;0.23;;;0.23;;
2896;SDS011;1458;49.728;9.228;2022-08-01T02:29:35;0.23;;;0.23;;
2896;SDS011;1458;49.728;9.228;2022-08-01T02:32:09;0.20;;;0.20;;
2896;SDS011;1458;49.728;9.228;2022-08-01T02:34:41;0.20;;;0.20;;
2896;SDS011;1458;49.728;9.228;2022-08-01T02:37:13;0.20;;;0.20;;
2896;SDS011;1458;49.728;9.228;2022-08-01T02:39:41;0.20;;;0.20;;
2896;SDS011;1458;49.728;9.228;2022-08-01T02:42:10;0.20;;;0.20;;
2896;SDS011;1458;49.728;9.228;2022-08-01T02:44:41;0.20;;;0.20;;
2896;SDS011;1458;49.728;9.228;2022-08-01T02:47:12;0.20;;;0.20;;
2896;SDS011;1458;49.728;9.228;2022-08-01T02:49:42;0.20;;;0.20;;
2896;SDS011;1458;49.728;9.228;2022-08-01T02:52:14;0.20;;;0.20;;
2896;SDS011;1458;49.728;9.228;2022-08-01T02:54:43;0.20;;;0.20;;
2896;SDS011;1458;49.728;9.228;2022-08-01T02:57:14;0.30;;;0.30;;
2896;SDS011;1458;49.728;9.228;2022-08-01T02:59:43;0.20;;;0.20;;
2896;SDS011;1458;49.728;9.228;2022-08-01T03:02:14;0.20;;;0.20;;
2896;SDS011;1458;49.728;9.228;2022-08-01T03:04:43;0.23;;;0.23;;
2896;SDS011;1458;49.728;9.228;2022-08-01T03:07:12;0.20;;;0.20;;
2896;SDS011;1458;49.728;9.228;2022-08-01T03:09:43;0.17;;;0.17;;
2896;SDS011;1458;49.728;9.228;2022-08-01T03:12:13;0.20;;;0.20;;
2896;SDS011;1458;49.728;9.228;2022-08-01T03:14:44;0.20;;;0.20;;
2896;SDS011;1458;49.728;9.228;2022-08-01T03:17:15;0.20;;;0.20;;
2896;SDS011;1458;49.728;9.228;2022-08-01T03:19:46;0.20;;;0.20;;
2896;SDS011;1458;49.728;9.228;2022-08-01T03:22:15;0.20;;;0.20;;
2896;SDS011;1458;49.728;9.228;2022-08-01T03:24:44;0.20;;;0.20;;
2896;SDS011;1458;49.728;9.228;2022-08-01T03:27:16;0.20;;;0.20;;
2896;SDS011;1458;49.728;9.228;2022-08-01T03:29:45;0.20;;;0.20;;
2896;SDS011;1458;49.728;9.228;2022-08-01T03:32:17;0.20;;;0.20;;
2896;SDS011;1458;49.728;9.228;2022-08-01T03:34:45;0.20;;;0.20;;
2896;SDS011;1458;49.728;9.228;2022-08-01T03:37:14;0.20;;;0.20;;
2896;SDS011;1458;49.728;9.228;2022-08-01T03:39:50;0.20;;;0.20;;
2896;SDS011;1458;49.728;9.228;2022-08-01T03:42:24;0.20;;;0.20;;
2896;SDS011;1458;49.728;9.228;2022-08-01T03:45:02;0.20;;;0.20;;
2896;SDS011;1458;49.728;9.228;2022-08-01T03:47:36;0.20;;;0.20;;
2896;SDS011;1458;49.728;9.228;2022-08-01T03:50:04;0.20;;;0.20;;
2896;SDS011;1458;49.728;9.228;2022-08-01T03:52:34;0.20;;;0.20;;
2896;SDS011;1458;49.728;9.228;2022-08-01T03:55:06;0.20;;;0.20;;
2896;SDS011;1458;49.728;9.228;2022-08-01T03:57:35;0.20;;;0.20;;
2896;SDS011;1458;49.728;9.228;2022-08-01T04:00:06;0.20;;;0.20;;
2896;SDS011;1458;49.728;9.228;2022-08-01T04:02:39;0.20;;;0.20;;
2896;SDS011;1458;49.728;9.228;2022-08-01T04:05:07;0.20;;;0.20;;
2896;SDS011;1458;49.728;9.228;2022-08-01T04:07:35;0.10;;;0.10;;
2896;SDS011;1458;49.728;9.228;2022-08-01T04:10:04;0.20;;;0.20;;
2896;SDS011;1458;49.728;9.228;2022-08-01T04:12:33;0.20;;;0.20;;
2896;SDS011;1458;49.728;9.228;2022-08-01T04:15:01;0.20;;;0.20;;
2896;SDS011;1458;49.728;9.228;2022-08-01T04:17:30;0.20;;;0.20;;
2896;SDS011;1458;49.728;9.228;2022-08-01T04:19:59;0.20;;;0.20;;
2896;SDS011;1458;49.728;9.228;2022-08-01T04:22:26;0.23;;;0.23;;
2896;SDS011;1458;49.728;9.228;2022-08-01T04:24:55;0.20;;;0.20;;
2896;SDS011;1458;49.728;9.228;2022-08-01T04:27:26;0.20;;;0.20;;
2896;SDS011;1458;49.728;9.228;2022-08-01T04:29:58;0.20;;;0.20;;
2896;SDS011;1458;49.728;9.228;2022-08-01T04:32:26;0.20;;;0.20;;
2896;SDS011;1458;49.728;9.228;2022-08-01T04:34:59;0.20;;;0.20;;
2896;SDS011;1458;49.728;9.228;2022-08-01T04:37:29;0.20;;;0.20;;
2896;SDS011;1458;49.728;9.228;2022-08-01T04:39:58;0.20;;;0.20;;
2896;SDS011;1458;49.728;9.228;2022-08-01T04:42:28;0.20;;;0.20;;
2896;SDS011;1458;49.728;9.228;2022-08-01T04:44:57;0.20;;;0.20;;
2896;SDS011;1458;49.728;9.228;2022-08-01T04:47:25;0.20;;;0.20;;
2896;SDS011;1458;49.728;9.228;2022-08-01T04:49:53;0.20;;;0.20;;
2896;SDS011;1458;49.728;9.228;2022-08-01T04:52:23;0.20;;;0.20;;
2896;SDS011;1458;49.728;9.228;2022-08-01T04:55:00;0.20;;;0.20;;
2896;SDS011;1458;49.728;9.228;2022-08-01T04:57:28;0.20;;;0.20;;
2896;SDS011;1458;49.728;9.228;2022-08-01T04:59:56;0.27;;;0.27;;
2896;SDS011;1458;49.728;9.228;2022-08-01T05:02:23;0.20;;;0.20;;
2896;SDS011;1458;49.728;9.228;2022-08-01T05:04:53;0.20;;;0.20;;
2896;SDS011;1458;49.728;9.228;2022-08-01T05:07:22;0.30;;;0.30;;
2896;SDS011;1458;49.728;9.228;2022-08-01T05:09:50;0.30;;;0.30;;
2896;SDS011;1458;49.728;9.228;2022-08-01T05:12:18;0.50;;;0.50;;
2896;SDS011;1458;49.728;9.228;2022-08-01T05:14:45;0.40;;;0.40;;
2896;SDS011;1458;49.728;9.228;2022-08-01T05:17:13;0.40;;;0.40;;
2896;SDS011;1458;49.728;9.228;2022-08-01T05:19:42;0.40;;;0.40;;
2896;SDS011;1458;49.728;9.228;2022-08-01T05:22:09;0.50;;;0.50;;
2896;SDS011;1458;49.728;9.228;2022-08-01T05:24:38;0.40;;;0.40;;
2896;SDS011;1458;49.728;9.228;2022-08-01T05:27:07;0.40;;;0.40;;
2896;SDS011;1458;49.728;9.228;2022-08-01T05:29:35;0.50;;;0.50;;
2896;SDS011;1458;49.728;9.228;2022-08-01T05:32:02;0.50;;;0.50;;
2896;SDS011;1458;49.728;9.228;2022-08-01T05:34:30;0.50;;;0.50;;
2896;SDS011;1458;49.728;9.228;2022-08-01T05:36:58;0.70;;;0.70;;
2896;SDS011;1458;49.728;9.228;2022-08-01T05:39:26;0.70;;;0.70;;
2896;SDS011;1458;49.728;9.228;2022-08-01T05:41:54;0.53;;;0.53;;
2896;SDS011;1458;49.728;9.228;2022-08-01T05:44:22;0.70;;;0.70;;
2896;SDS011;1458;49.728;9.228;2022-08-01T05:46:50;0.80;;;0.80;;
2896;SDS011;1458;49.728;9.228;2022-08-01T05:49:18;0.80;;;0.80;;
2896;SDS011;1458;49.728;9.228;2022-08-01T05:51:45;1.10;;;1.10;;
2896;SDS011;1458;49.728;9.228;2022-08-01T05:54:13;1.30;;;1.30;;
2896;SDS011;1458;49.728;9.228;2022-08-01T05:56:40;1.10;;;1.10;;
2896;SDS011;1458;49.728;9.228;2022-08-01T05:59:09;1.13;;;1.13;;
2896;SDS011;1458;49.728;9.228;2022-08-01T06:01:37;1.30;;;1.30;;
2896;SDS011;1458;49.728;9.228;2022-08-01T06:04:04;1.67;;;1.67;;
2896;SDS011;1458;49.728;9.228;2022-08-01T06:06:32;1.87;;;1.87;;
2896;SDS011;1458;49.728;9.228;2022-08-01T06:08:59;1.60;;;1.60;;
2896;SDS011;1458;49.728;9.228;2022-08-01T06:11:29;1.60;;;1.60;;
2896;SDS011;1458;49.728;9.228;2022-08-01T06:13:57;1.70;;;1.70;;
2896;SDS011;1458;49.728;9.228;2022-08-01T06:16:33;1.93;;;1.93;;
2896;SDS011;1458;49.728;9.228;2022-08-01T06:19:02;1.90;;;1.90;;
2896;SDS011;1458;49.728;9.228;2022-08-01T06:21:29;2.40;;;2.40;;
2896;SDS011;1458;49.728;9.228;2022-08-01T06:23:57;2.60;;;2.60;;
2896;SDS011;1458;49.728;9.228;2022-08-01T06:26:24;3.30;;;3.30;;
2896;SDS011;1458;49.728;9.228;2022-08-01T06:28:51;4.10;;;4.10;;
2896;SDS011;1458;49.728;9.228;2022-08-01T06:31:38;4.70;;;4.70;;
2896;SDS011;1458;49.728;9.228;2022-08-01T06:34:06;5.70;;;5.70;;
2896;SDS011;1458;49.728;9.228;2022-08-01T06:36:33;7.00;;;6.90;;
2896;SDS011;1458;49.728;9.228;2022-08-01T06:39:01;7.90;;;7.80;;
2896;SDS011;1458;49.728;9.228;2022-08-01T06:41:29;7.90;;;7.80;;
2896;SDS011;1458;49.728;9.228;2022-08-01T06:43:57;8.10;;;8.00;;
2896;SDS011;1458;49.728;9.228;2022-08-01T06:46:27;8.87;;;8.67;;
2896;SDS011;1458;49.728;9.228;2022-08-01T06:48:56;9.33;;;9.13;;
2896;SDS011;1458;49.728;9.228;2022-08-01T06:51:23;9.37;;;9.17;;
2896;SDS011;1458;49.728;9.228;2022-08-01T06:53:51;9.73;;;9.53;;
2896;SDS011;1458;49.728;9.228;2022-08-01T06:56:25;10.00;;;9.80;;
2896;SDS011;1458;49.728;9.228;2022-08-01T06:58:52;9.67;;;9.47;;
2896;SDS011;1458;49.728;9.228;2022-08-01T07:01:33;10.00;;;9.80;;
2896;SDS011;1458;49.728;9.228;2022-08-01T07:04:02;10.20;;;10.00;;
2896;SDS011;1458;49.728;9.228;2022-08-01T07:06:30;10.10;;;9.90;;
2896;SDS011;1458;49.728;9.228;2022-08-01T07:08:58;10.60;;;10.30;;
2896;SDS011;1458;49.728;9.228;2022-08-01T07:11:27;10.60;;;10.30;;
2896;SDS011;1458;49.728;9.228;2022-08-01T07:13:54;10.60;;;10.30;;
2896;SDS011;1458;49.728;9.228;2022-08-01T07:16:22;10.57;;;10.27;;
2896;SDS011;1458;49.728;9.228;2022-08-01T07:18:49;10.90;;;10.60;;
2896;SDS011;1458;49.728;9.228;2022-08-01T07:21:27;11.10;;;10.80;;
2896;SDS011;1458;49.728;9.228;2022-08-01T07:23:55;10.70;;;10.40;;
2896;SDS011;1458;49.728;9.228;2022-08-01T07:26:28;10.80;;;10.50;;
2896;SDS011;1458;49.728;9.228;2022-08-01T07:28:56;10.00;;;9.80;;
2896;SDS011;1458;49.728;9.228;2022-08-01T07:31:24;10.40;;;10.17;;
2896;SDS011;1458;49.728;9.228;2022-08-01T07:33:52;10.03;;;9.83;;
2896;SDS011;1458;49.728;9.228;2022-08-01T07:36:19;10.40;;;10.20;;
2896;SDS011;1458;49.728;9.228;2022-08-01T07:38:48;10.30;;;10.10;;
2896;SDS011;1458;49.728;9.228;2022-08-01T07:41:21;10.10;;;9.90;;
2896;SDS011;1458;49.728;9.228;2022-08-01T07:43:49;10.00;;;9.80;;
2896;SDS011;1458;49.728;9.228;2022-08-01T07:49:08;10.30;;;10.10;;
2896;SDS011;1458;49.728;9.228;2022-08-01T07:51:36;10.20;;;10.00;;
2896;SDS011;1458;49.728;9.228;2022-08-01T07:54:05;10.47;;;10.27;;
2896;SDS011;1458;49.728;9.228;2022-08-01T07:56:33;10.57;;;10.27;;
2896;SDS011;1458;49.728;9.228;2022-08-01T07:59:00;10.70;;;10.40;;
2896;SDS011;1458;49.728;9.228;2022-08-01T08:01:31;10.50;;;10.20;;
2896;SDS011;1458;49.728;9.228;2022-08-01T08:03:59;11.00;;;10.70;;
2896;SDS011;1458;49.728;9.228;2022-08-01T08:06:29;10.43;;;10.23;;
2896;SDS011;1458;49.728;9.228;2022-08-01T08:08:57;10.60;;;10.30;;
2896;SDS011;1458;49.728;9.228;2022-08-01T08:11:38;10.90;;;10.60;;
2896;SDS011;1458;49.728;9.228;2022-08-01T08:14:05;10.40;;;10.20;;
2896;SDS011;1458;49.728;9.228;2022-08-01T08:16:32;10.80;;;10.50;;
2896;SDS011;1458;49.728;9.228;2022-08-01T08:19:03;11.20;;;10.90;;
2896;SDS011;1458;49.728;9.228;2022-08-01T08:21:31;10.40;;;10.20;;
2896;SDS011;1458;49.728;9.228;2022-08-01T08:23:58;10.30;;;10.10;;
2896;SDS011;1458;49.728;9.228;2022-08-01T08:26:44;10.20;;;10.00;;
2896;SDS011;1458;49.728;9.228;2022-08-01T08:29:12;10.13;;;9.93;;
2896;SDS011;1458;49.728;9.228;2022-08-01T08:31:40;10.53;;;10.23;;
2896;SDS011;1458;49.728;9.228;2022-08-01T08:34:08;10.70;;;10.40;;
2896;SDS011;1458;49.728;9.228;2022-08-01T08:36:35;10.70;;;10.40;;
2896;SDS011;1458;49.728;9.228;2022-08-01T08:39:03;11.67;;;11.37;;
2896;SDS011;1458;49.728;9.228;2022-08-01T08:41:31;11.30;;;11.00;;
2896;SDS011;1458;49.728;9.228;2022-08-01T08:44:01;11.60;;;11.30;;
2896;SDS011;1458;49.728;9.228;2022-08-01T08:46:29;11.50;;;11.20;;
2896;SDS011;1458;49.728;9.228;2022-08-01T08:48:59;11.47;;;11.17;;
2896;SDS011;1458;49.728;9.228;2022-08-01T08:51:30;11.70;;;11.40;;
2896;SDS011;1458;49.728;9.228;2022-08-01T08:54:00;11.63;;;11.33;;
2896;SDS011;1458;49.728;9.228;2022-08-01T08:56:34;11.30;;;11.00;;
2896;SDS011;1458;49.728;9.228;2022-08-01T08:59:05;11.30;;;11.00;;
2896;SDS011;1458;49.728;9.228;2022-08-01T09:01:45;11.80;;;11.50;;
2896;SDS011;1458;49.728;9.228;2022-08-01T09:04:13;12.10;;;11.70;;
2896;SDS011;1458;49.728;9.228;2022-08-01T09:06:41;12.60;;;12.20;;
2896;SDS011;1458;49.728;9.228;2022-08-01T09:09:09;12.30;;;11.90;;
2896;SDS011;1458;49.728;9.228;2022-08-01T09:11:37;11.97;;;11.67;;
2896;SDS011;1458;49.728;9.228;2022-08-01T09:14:07;11.60;;;11.30;;
2896;SDS011;1458;49.728;9.228;2022-08-01T09:16:37;12.20;;;11.80;;
2896;SDS011;1458;49.728;9.228;2022-08-01T09:19:12;11.90;;;11.60;;
2896;SDS011;1458;49.728;9.228;2022-08-01T09:21:54;12.07;;;11.70;;
2896;SDS011;1458;49.728;9.228;2022-08-01T09:24:24;12.00;;;11.70;;
2896;SDS011;1458;49.728;9.228;2022-08-01T09:26:53;12.73;;;12.33;;
2896;SDS011;1458;49.728;9.228;2022-08-01T09:29:22;11.60;;;11.30;;
2896;SDS011;1458;49.728;9.228;2022-08-01T09:31:52;11.80;;;11.50;;
2896;SDS011;1458;49.728;9.228;2022-08-01T09:34:24;11.50;;;11.20;;
2896;SDS011;1458;49.728;9.228;2022-08-01T09:36:53;12.30;;;11.90;;
2896;SDS011;1458;49.728;9.228;2022-08-01T09:39:23;11.50;;;11.20;;
2896;SDS011;1458;49.728;9.228;2022-08-01T09:41:54;12.20;;;11.80;;
2896;SDS011;1458;49.728;9.228;2022-08-01T09:44:38;12.60;;;12.20;;
2896;SDS011;1458;49.728;9.228;2022-08-01T09:47:07;12.20;;;11.80;;
2896;SDS011;1458;49.728;9.228;2022-08-01T09:49:35;12.50;;;12.10;;
2896;SDS011;1458;49.728;9.228;2022-08-01T09:52:11;13.23;;;12.83;;
2896;SDS011;1458;49.728;9.228;2022-08-01T09:54:40;12.70;;;12.30;;
2896;SDS011;1458;49.728;9.228;2022-08-01T09:57:11;12.73;;;12.33;;
2896;SDS011;1458;49.728;9.228;2022-08-01T09:59:43;12.70;;;12.30;;
2896;SDS011;1458;49.728;9.228;2022-08-01T10:02:14;13.43;;;13.03;;
2896;SDS011;1458;49.728;9.228;2022-08-01T10:04:55;13.30;;;12.90;;
2896;SDS011;1458;49.728;9.228;2022-08-01T10:07:23;12.80;;;12.40;;
2896;SDS011;1458;49.728;9.228;2022-08-01T10:09:50;12.77;;;12.37;;
2896;SDS011;1458;49.728;9.228;2022-08-01T10:12:19;12.67;;;12.27;;
2896;SDS011;1458;49.728;9.228;2022-08-01T10:14:50;13.10;;;12.70;;
2896;SDS011;1458;49.728;9.228;2022-08-01T10:17:20;12.77;;;12.37;;
2896;SDS011;1458;49.728;9.228;2022-08-01T10:19:51;12.87;;;12.47;;
2896;SDS011;1458;49.728;9.228;2022-08-01T10:22:22;12.70;;;12.30;;
2896;SDS011;1458;49.728;9.228;2022-08-01T10:24:54;12.43;;;12.03;;
2896;SDS011;1458;49.728;9.228;2022-08-01T10:27:24;12.73;;;12.33;;
2896;SDS011;1458;49.728;9.228;2022-08-01T10:29:55;12.87;;;12.47;;
2896;SDS011;1458;49.728;9.228;2022-08-01T10:32:29;12.90;;;12.50;;
2896;SDS011;1458;49.728;9.228;2022-08-01T10:34:56;13.27;;;12.87;;
2896;SDS011;1458;49.728;9.228;2022-08-01T10:37:25;12.87;;;12.47;;
2896;SDS011;1458;49.728;9.228;2022-08-01T10:39:53;12.50;;;12.10;;
2896;SDS011;1458;49.728;9.228;2022-08-01T10:42:20;12.20;;;11.80;;
2896;SDS011;1458;49.728;9.228;2022-08-01T10:44:48;12.47;;;12.07;;
2896;SDS011;1458;49.728;9.228;2022-08-01T10:47:21;12.20;;;11.80;;
2896;SDS011;1458;49.728;9.228;2022-08-01T10:49:56;12.67;;;12.27;;
2896;SDS011;1458;49.728;9.228;2022-08-01T10:52:29;12.67;;;12.27;;
2896;SDS011;1458;49.728;9.228;2022-08-01T10:55:01;12.50;;;12.10;;
2896;SDS011;1458;49.728;9.228;2022-08-01T10:57:40;12.83;;;12.43;;
2896;SDS011;1458;49.728;9.228;2022-08-01T11:00:10;12.77;;;12.37;;
2896;SDS011;1458;49.728;9.228;2022-08-01T11:02:57;12.80;;;12.40;;
2896;SDS011;1458;49.728;9.228;2022-08-01T11:05:30;12.83;;;12.43;;
2896;SDS011;1458;49.728;9.228;2022-08-01T11:08:01;13.00;;;12.60;;
2896;SDS011;1458;49.728;9.228;2022-08-01T11:10:33;13.13;;;12.73;;
2896;SDS011;1458;49.728;9.228;2022-08-01T11:13:06;13.20;;;12.80;;
2896;SDS011;1458;49.728;9.228;2022-08-01T11:15:34;12.80;;;12.40;;
2896;SDS011;1458;49.728;9.228;2022-08-01T11:18:28;12.60;;;12.20;;
2896;SDS011;1458;49.728;9.228;2022-08-01T11:20:58;12.80;;;12.40;;
2896;SDS011;1458;49.728;9.228;2022-08-01T11:23:28;13.10;;;12.70;;
2896;SDS011;1458;49.728;9.228;2022-08-01T11:29:10;13.43;;;13.03;;
2896;SDS011;1458;49.728;9.228;2022-08-01T11:31:43;14.00;;;13.50;;
2896;SDS011;1458;49.728;9.228;2022-08-01T11:34:12;13.20;;;12.80;;
2896;SDS011;1458;49.728;9.228;2022-08-01T11:36:40;13.00;;;12.60;;
2896;SDS011;1458;49.728;9.228;2022-08-01T11:39:12;12.70;;;12.30;;
2896;SDS011;1458;49.728;9.228;2022-08-01T11:41:44;12.67;;;12.27;;
2896;SDS011;1458;49.728;9.228;2022-08-01T11:44:15;12.90;;;12.50;;
2896;SDS011;1458;49.728;9.228;2022-08-01T11:46:54;12.90;;;12.50;;
2896;SDS011;1458;49.728;9.228;2022-08-01T11:49:33;13.23;;;12.83;;
2896;SDS011;1458;49.728;9.228;2022-08-01T11:52:23;13.13;;;12.73;;
2896;SDS011;1458;49.728;9.228;2022-08-01T11:54:53;13.70;;;13.20;;
2896;SDS011;1458;49.728;9.228;2022-08-01T11:57:23;13.13;;;12.73;;
2896;SDS011;1458;49.728;9.228;2022-08-01T11:59:57;13.80;;;13.30;;
2896;SDS011;1458;49.728;9.228;2022-08-01T12:02:26;13.23;;;12.83;;
2896;SDS011;1458;49.728;9.228;2022-08-01T12:04:57;14.03;;;13.53;;
2896;SDS011;1458;49.728;9.228;2022-08-01T12:07:27;13.97;;;13.47;;
2896;SDS011;1458;49.728;9.228;2022-08-01T12:09:58;13.70;;;13.20;;
2896;SDS011;1458;49.728;9.228;2022-08-01T12:12:29;13.90;;;13.40;;
2896;SDS011;1458;49.728;9.228;2022-08-01T12:14:58;13.50;;;13.00;;
2896;SDS011;1458;49.728;9.228;2022-08-01T12:17:34;13.90;;;13.40;;
2896;SDS011;1458;49.728;9.228;2022-08-01T12:20:05;13.63;;;13.13;;
2896;SDS011;1458;49.728;9.228;2022-08-01T12:22:36;13.73;;;13.23;;
2896;SDS011;1458;49.728;9.228;2022-08-01T12:25:07;13.53;;;13.03;;
2896;SDS011;1458;49.728;9.228;2022-08-01T12:27:37;13.73;;;13.23;;
2896;SDS011;1458;49.728;9.228;2022-08-01T12:30:07;13.50;;;13.00;;
2896;SDS011;1458;49.728;9.228;2022-08-01T12:32:37;14.23;;;13.73;;
2896;SDS011;1458;49.728;9.228;2022-08-01T12:35:08;13.80;;;13.30;;
2896;SDS011;1458;49.728;9.228;2022-08-01T12:37:37;13.90;;;13.40;;
2896;SDS011;1458;49.728;9.228;2022-08-01T12:40:10;13.80;;;13.30;;
2896;SDS011;1458;49.728;9.228;2022-08-01T12:42:41;13.40;;;12.90;;
2896;SDS011;1458;49.728;9.228;2022-08-01T12:45:12;13.90;;;13.40;;
2896;SDS011;1458;49.728;9.228;2022-08-01T12:47:43;13.63;;;13.13;;
2896;SDS011;1458;49.728;9.228;2022-08-01T12:50:14;13.77;;;13.27;;
2896;SDS011;1458;49.728;9.228;2022-08-01T12:52:44;13.83;;;13.33;;
2896;SDS011;1458;49.728;9.228;2022-08-01T12:55:12;13.70;;;13.20;;
2896;SDS011;1458;49.728;9.228;2022-08-01T12:57:43;14.23;;;13.73;;
2896;SDS011;1458;49.728;9.228;2022-08-01T13:00:16;13.50;;;13.10;;
2896;SDS011;1458;49.728;9.228;2022-08-01T13:02:47;13.83;;;13.33;;
2896;SDS011;1458;49.728;9.228;2022-08-01T13:05:18;13.60;;;13.10;;
2896;SDS011;1458;49.728;9.228;2022-08-01T13:07:46;14.07;;;13.57;;
2896;SDS011;1458;49.728;9.228;2022-08-01T13:10:24;13.67;;;13.17;;
2896;SDS011;1458;49.728;9.228;2022-08-01T13:12:56;13.97;;;13.47;;
2896;SDS011;1458;49.728;9.228;2022-08-01T13:15:26;13.77;;;13.27;;
2896;SDS011;1458;49.728;9.228;2022-08-01T13:17:58;13.60;;;13.10;;
2896;SDS011;1458;49.728;9.228;2022-08-01T13:20:30;14.30;;;13.80;;
2896;SDS011;1458;49.728;9.228;2022-08-01T13:23:13;13.97;;;13.47;;
2896;SDS011;1458;49.728;9.228;2022-08-01T13:25:46;13.87;;;13.37;;
2896;SDS011;1458;49.728;9.228;2022-08-01T13:28:17;14.00;;;13.50;;
2896;SDS011;1458;49.728;9.228;2022-08-01T13:30:51;14.13;;;13.63;;
2896;SDS011;1458;49.728;9.228;2022-08-01T13:33:20;14.27;;;13.77;;
2896;SDS011;1458;49.728;9.228;2022-08-01T13:35:50;13.70;;;13.20;;
2896;SDS011;1458;49.728;9.228;2022-08-01T13:38:19;13.80;;;13.30;;
2896;SDS011;1458;49.728;9.228;2022-08-01T13:41:21;13.83;;;13.33;;
2896;SDS011;1458;49.728;9.228;2022-08-01T13:43:48;13.90;;;13.40;;
2896;SDS011;1458;49.728;9.228;2022-08-01T13:46:22;13.93;;;13.43;;
2896;SDS011;1458;49.728;9.228;2022-08-01T13:48:50;14.10;;;13.60;;
2896;SDS011;1458;49.728;9.228;2022-08-01T13:51:28;14.00;;;13.50;;
2896;SDS011;1458;49.728;9.228;2022-08-01T13:53:55;13.90;;;13.40;;
2896;SDS011;1458;49.728;9.228;2022-08-01T13:56:26;14.03;;;13.53;;
2896;SDS011;1458;49.728;9.228;2022-08-01T13:58:54;14.33;;;13.83;;
2896;SDS011;1458;49.728;9.228;2022-08-01T14:01:40;13.80;;;13.30;;
2896;SDS011;1458;49.728;9.228;2022-08-01T14:04:08;14.00;;;13.50;;
2896;SDS011;1458;49.728;9.228;2022-08-01T14:09:29;14.70;;;14.20;;
2896;SDS011;1458;49.728;9.228;2022-08-01T14:11:58;14.83;;;14.33;;
2896;SDS011;1458;49.728;9.228;2022-08-01T14:14:25;14.97;;;14.47;;
2896;SDS011;1458;49.728;9.228;2022-08-01T14:16:53;13.73;;;13.30;;
2896;SDS011;1458;49.728;9.228;2022-08-01T14:19:21;14.70;;;14.20;;
2896;SDS011;1458;49.728;9.228;2022-08-01T14:21:48;14.10;;;13.60;;
2896;SDS011;1458;49.728;9.228;2022-08-01T14:24:19;14.20;;;13.70;;
2896;SDS011;1458;49.728;9.228;2022-08-01T14:29:39;12.83;;;12.43;;
2896;SDS011;1458;49.728;9.228;2022-08-01T14:32:06;13.53;;;13.03;;
2896;SDS011;1458;49.728;9.228;2022-08-01T14:34:34;14.00;;;13.50;;
2896;SDS011;1458;49.728;9.228;2022-08-01T14:37:01;14.60;;;14.10;;
2896;SDS011;1458;49.728;9.228;2022-08-01T14:39:30;13.33;;;12.93;;
2896;SDS011;1458;49.728;9.228;2022-08-01T14:41:58;13.53;;;13.13;;
2896;SDS011;1458;49.728;9.228;2022-08-01T14:44:25;13.43;;;13.03;;
2896;SDS011;1458;49.728;9.228;2022-08-01T14:46:53;13.50;;;13.03;;
2896;SDS011;1458;49.728;9.228;2022-08-01T14:49:20;13.40;;;13.00;;
2896;SDS011;1458;49.728;9.228;2022-08-01T14:55:05;13.57;;;13.17;;
2896;SDS011;1458;49.728;9.228;2022-08-01T14:57:35;13.43;;;13.03;;
2896;SDS011;1458;49.728;9.228;2022-08-01T15:04:11;14.00;;;13.50;;
2896;SDS011;1458;49.728;9.228;2022-08-01T15:06:38;13.60;;;13.20;;
2896;SDS011;1458;49.728;9.228;2022-08-01T15:09:06;13.47;;;13.07;;
2896;SDS011;1458;49.728;9.228;2022-08-01T15:11:35;13.40;;;13.00;;
2896;SDS011;1458;49.728;9.228;2022-08-01T15:14:03;12.90;;;12.50;;
2896;SDS011;1458;49.728;9.228;2022-08-01T15:16:48;13.40;;;13.00;;
2896;SDS011;1458;49.728;9.228;2022-08-01T15:19:17;13.23;;;12.83;;
2896;SDS011;1458;49.728;9.228;2022-08-01T15:21:44;13.73;;;13.23;;
2896;SDS011;1458;49.728;9.228;2022-08-01T15:24:12;13.03;;;12.63;;
2896;SDS011;1458;49.728;9.228;2022-08-01T15:26:41;13.00;;;12.60;;
2896;SDS011;1458;49.728;9.228;2022-08-01T15:29:08;13.90;;;13.40;;
2896;SDS011;1458;49.728;9.228;2022-08-01T15:31:37;14.40;;;13.90;;
2896;SDS011;1458;49.728;9.228;2022-08-01T15:34:05;13.53;;;13.10;;
2896;SDS011;1458;49.728;9.228;2022-08-01T15:36:33;14.00;;;13.50;;
2896;SDS011;1458;49.728;9.228;2022-08-01T15:39:01;13.30;;;12.90;;
2896;SDS011;1458;49.728;9.228;2022-08-01T15:41:29;12.97;;;12.57;;
2896;SDS011;1458;49.728;9.228;2022-08-01T15:43:58;13.07;;;12.67;;